Time;durP1;ratioP1;P1;durP2;ratioP2;P2;SDS_P1;SDS_P2;PMS_P1;PMS_P2;Temp;Humidity;BMP_temperature;BMP_pressure;BME280_temperature;BME280_humidity;BME280_pressure;Samples;Min_cycle;Max_cycle;Signal;HPM_P1;HPM_P2
2022/04/25 00:00:46;;;;;;;19.55;5.55;;;;;;;15.15;56.82;93256.28;5081778;28;20016;-69
2022/04/25 00:03:11;;;;;;;14.70;4.65;;;;;;;15.09;57.01;93256.94;5081752;28;20031;-69
2022/04/25 00:05:37;;;;;;;22.52;4.68;;;;;;;15.06;57.52;93253.03;5081663;28;20017;-69
2022/04/25 00:08:02;;;;;;;29.02;5.78;;;;;;;15.03;56.88;93257.19;5081570;28;20078;-69
2022/04/25 00:10:28;;;;;;;21.45;5.90;;;;;;;15.03;56.76;93264.47;5082296;28;20024;-69
2022/04/25 00:12:53;;;;;;;21.95;4.82;;;;;;;14.87;57.28;93266.47;5085216;28;20025;-69
2022/04/25 00:15:19;;;;;;;21.75;5.10;;;;;;;14.78;57.69;93264.78;5085350;28;20031;-69
2022/04/25 00:17:44;;;;;;;27.05;6.45;;;;;;;14.64;58.54;93265.28;5084950;28;20070;-69
2022/04/25 00:20:10;;;;;;;21.45;4.63;;;;;;;14.41;59.26;93267.84;5085188;28;20028;-69
2022/04/25 00:22:36;;;;;;;25.48;5.57;;;;;;;14.33;59.25;93259.97;5084975;28;20036;-69
2022/04/25 00:25:02;;;;;;;18.67;4.78;;;;;;;14.27;59.69;93264.06;5085219;28;20062;-69
2022/04/25 00:27:29;;;;;;;19.67;4.50;;;;;;;14.13;59.93;93268.00;5085019;28;20032;-69
2022/04/25 00:29:56;;;;;;;19.92;4.60;;;;;;;14.09;60.07;93269.84;5084734;28;20343;-69
2022/04/25 00:32:22;;;;;;;25.20;4.20;;;;;;;14.10;60.22;93273.28;5084900;28;20044;-69
2022/04/25 00:34:47;;;;;;;18.92;4.60;;;;;;;14.06;60.29;93270.50;5084763;28;20306;-69
2022/04/25 00:37:13;;;;;;;33.03;4.32;;;;;;;14.03;60.41;93268.56;5084982;28;20020;-69
2022/04/25 00:39:38;;;;;;;19.17;4.80;;;;;;;14.01;60.44;93268.88;5084955;28;20069;-69
2022/04/25 00:42:04;;;;;;;23.25;5.22;;;;;;;13.97;60.51;93264.59;5066732;28;20031;-69
2022/04/25 00:44:29;;;;;;;18.63;5.75;;;;;;;13.99;60.37;93268.47;5084628;28;20127;-69
2022/04/25 00:46:56;;;;;;;17.55;4.55;;;;;;;13.99;60.10;93271.13;5084642;28;20341;-69
2022/04/25 00:49:25;;;;;;;23.55;4.53;;;;;;;13.99;60.10;93260.44;5084625;28;20227;-69
2022/04/25 00:51:53;;;;;;;18.13;4.47;;;;;;;13.99;59.99;93252.38;5084563;28;20028;-69
2022/04/25 00:54:20;;;;;;;28.10;6.35;;;;;;;14.09;59.64;93261.03;5084463;28;20020;-69
2022/04/25 00:56:48;;;;;;;24.88;3.65;;;;;;;14.11;59.38;93264.13;5084333;28;20257;-69
2022/04/25 00:59:16;;;;;;;19.00;4.95;;;;;;;14.07;59.81;93264.03;5084604;28;20024;-69
2022/04/25 01:01:42;;;;;;;20.23;5.47;;;;;;;14.10;60.06;93255.28;5084501;28;20017;-69
2022/04/25 01:04:09;;;;;;;22.13;4.93;;;;;;;14.13;60.39;93249.25;5084124;28;20118;-69
2022/04/25 01:06:35;;;;;;;19.88;5.20;;;;;;;14.15;60.49;93246.22;5084151;28;20023;-69
2022/04/25 01:09:00;;;;;;;20.60;4.50;;;;;;;14.16;60.25;93239.72;5084273;28;20359;-69
2022/04/25 01:11:26;;;;;;;17.50;5.05;;;;;;;14.18;60.08;93243.59;5084283;28;20250;-69
2022/04/25 01:13:51;;;;;;;24.17;6.85;;;;;;;14.18;59.92;93243.59;5084041;28;20337;-69
2022/04/25 01:16:17;;;;;;;14.95;4.22;;;;;;;14.19;59.77;93229.09;5084171;28;20027;-69
2022/04/25 01:18:42;;;;;;;26.15;4.78;;;;;;;14.15;59.66;93230.91;5084098;28;20029;-69
2022/04/25 01:21:13;;;;;;;16.17;4.20;;;;;;;14.10;59.50;93219.69;5083625;28;20028;-69
2022/04/25 01:29:08;;;;;;;22.23;4.80;;;;;;;14.07;59.52;93205.09;5083701;28;20116;-69
2022/04/25 01:31:33;;;;;;;18.55;4.10;;;;;;;14.07;59.96;93210.47;5083623;28;20023;-69
2022/04/25 01:33:59;;;;;;;22.42;5.10;;;;;;;14.04;59.82;93205.78;5083779;28;20013;-69
2022/04/25 01:36:24;;;;;;;15.20;4.85;;;;;;;14.05;59.93;93200.09;5083528;28;20061;-69
2022/04/25 01:38:53;;;;;;;25.40;5.40;;;;;;;14.05;59.96;93193.94;5083488;28;20024;-69
2022/04/25 01:41:19;;;;;;;30.42;4.57;;;;;;;14.04;60.02;93189.69;5083532;28;20069;-69
2022/04/25 01:43:44;;;;;;;25.80;4.75;;;;;;;14.03;59.95;93182.81;5083583;28;20043;-69
2022/04/25 01:46:10;;;;;;;21.13;5.05;;;;;;;14.02;59.86;93187.41;5083541;28;20016;-69
2022/04/25 01:48:36;;;;;;;15.52;4.95;;;;;;;14.00;59.71;93188.84;5083522;28;20036;-69
2022/04/25 01:51:04;;;;;;;28.92;4.63;;;;;;;13.97;59.84;93195.69;5083244;28;20364;-69
2022/04/25 01:53:30;;;;;;;21.42;6.75;;;;;;;13.98;59.79;93199.16;5083158;28;20020;-69
2022/04/25 01:55:56;;;;;;;25.83;5.95;;;;;;;13.96;59.39;93190.69;5083250;28;20091;-69
2022/04/25 01:58:21;;;;;;;24.40;4.63;;;;;;;13.94;59.85;93198.28;5083073;28;20322;-69
2022/04/25 02:00:47;;;;;;;25.00;4.57;;;;;;;13.83;60.00;93193.47;5083235;28;20106;-69
2022/04/25 02:03:13;;;;;;;24.40;5.10;;;;;;;13.76;60.12;93196.00;5083301;28;20311;-70
2022/04/25 02:05:39;;;;;;;32.88;4.50;;;;;;;13.65;60.52;93185.03;5083152;28;20222;-69
2022/04/25 02:08:05;;;;;;;22.55;5.18;;;;;;;13.66;60.76;93185.84;5083156;28;20099;-68
2022/04/25 02:10:30;;;;;;;23.27;5.80;;;;;;;13.64;60.99;93174.69;5083118;28;20331;-69
2022/04/25 02:12:56;;;;;;;24.85;4.88;;;;;;;13.63;61.11;93175.81;5082990;28;20164;-69
2022/04/25 02:15:22;;;;;;;24.63;6.15;;;;;;;13.64;61.11;93182.72;5082842;28;20091;-69
2022/04/25 02:17:48;;;;;;;20.98;4.95;;;;;;;13.61;61.10;93178.06;5082905;28;20016;-70
2022/04/25 02:20:14;;;;;;;33.97;7.25;;;;;;;13.44;61.74;93173.84;5082971;28;20016;-68
2022/04/25 02:22:40;;;;;;;32.15;5.05;;;;;;;13.48;61.66;93174.72;5082552;28;20026;-70
2022/04/25 02:25:06;;;;;;;26.05;5.63;;;;;;;13.48;61.73;93174.72;5082879;28;20065;-70
2022/04/25 02:27:32;;;;;;;21.00;4.72;;;;;;;13.44;61.78;93190.69;5082614;28;20214;-70
2022/04/25 02:29:58;;;;;;;26.20;4.90;;;;;;;13.43;61.72;93194.50;5082907;28;20024;-69
2022/04/25 02:32:30;;;;;;;27.85;5.28;;;;;;;13.40;61.78;93189.06;5082574;28;20012;-69
2022/04/25 02:34:56;;;;;;;22.85;5.18;;;;;;;13.33;61.86;93192.34;5082285;28;20021;-69
2022/04/25 02:37:22;;;;;;;20.38;6.28;;;;;;;13.30;61.75;93186.91;5082724;28;20051;-70
2022/04/25 02:39:48;;;;;;;22.58;4.90;;;;;;;13.31;61.79;93191.94;5082664;28;20020;-69
2022/04/25 02:42:13;;;;;;;23.85;5.82;;;;;;;13.24;61.98;93189.81;5082694;28;20135;-70
2022/04/25 02:44:39;;;;;;;21.33;5.72;;;;;;;13.21;62.05;93195.09;5082543;28;20024;-69
2022/04/25 02:47:04;;;;;;;18.50;4.07;;;;;;;13.19;61.71;93189.31;5082547;28;20095;-69
2022/04/25 02:49:30;;;;;;;23.55;5.35;;;;;;;13.14;62.16;93187.66;5082598;28;20024;-69
2022/04/25 02:51:56;;;;;;;23.13;5.28;;;;;;;13.20;62.04;93169.44;5082563;28;20341;-70
2022/04/25 02:54:21;;;;;;;27.88;5.82;;;;;;;13.20;62.16;93156.81;5082350;28;20025;-70
2022/04/25 02:56:48;;;;;;;29.05;5.45;;;;;;;13.20;62.15;93145.34;5082641;28;20107;-70
2022/04/25 02:59:16;;;;;;;23.80;6.13;;;;;;;13.11;62.42;93144.75;5082678;28;20253;-70
2022/04/25 03:01:42;;;;;;;18.80;4.93;;;;;;;13.13;62.46;93142.53;5082678;28;20173;-69
2022/04/25 03:04:08;;;;;;;29.98;6.50;;;;;;;13.13;62.33;93131.81;5082306;28;20044;-69
2022/04/25 03:06:34;;;;;;;26.20;5.15;;;;;;;13.07;62.46;93142.00;5082256;28;20021;-69
2022/04/25 03:08:59;;;;;;;21.77;5.53;;;;;;;13.01;62.84;93140.72;5082492;28;20315;-69
2022/04/25 03:11:25;;;;;;;23.30;4.57;;;;;;;12.97;62.70;93143.28;5082309;28;20264;-69
2022/04/25 03:14:26;;;;;;;38.58;5.30;;;;;;;12.95;62.89;93150.88;5082393;28;20246;-69
2022/04/25 03:16:52;;;;;;;18.33;5.22;;;;;;;12.90;62.78;93151.13;5060274;28;20303;-69
2022/04/25 03:19:18;;;;;;;33.60;5.18;;;;;;;12.88;62.96;93148.03;5078057;28;20067;-70
2022/04/25 03:21:44;;;;;;;24.60;5.55;;;;;;;12.90;62.93;93150.34;5082354;28;20025;-69
2022/04/25 03:24:09;;;;;;;22.90;4.80;;;;;;;12.91;62.86;93163.41;5081986;28;20040;-70
2022/04/25 03:26:37;;;;;;;19.80;7.05;;;;;;;12.82;63.14;93162.78;5082259;28;20032;-70
2022/04/25 03:29:02;;;;;;;27.90;5.90;;;;;;;12.81;62.89;93158.56;5082117;28;20116;-69
2022/04/25 03:31:28;;;;;;;37.15;5.50;;;;;;;12.83;62.72;93159.75;5082121;28;20319;-69
2022/04/25 03:33:54;;;;;;;28.67;5.68;;;;;;;12.84;62.76;93165.88;5081929;28;20024;-70
2022/04/25 03:36:20;;;;;;;26.17;4.78;;;;;;;12.83;62.77;93172.34;5082141;28;20048;-69
2022/04/25 03:38:45;;;;;;;22.50;4.75;;;;;;;12.84;62.75;93168.56;5082333;28;20070;-70
2022/04/25 03:41:11;;;;;;;23.40;6.53;;;;;;;12.87;62.49;93170.56;5082133;28;20077;-69
2022/04/25 03:43:36;;;;;;;26.05;6.95;;;;;;;12.85;62.94;93176.25;5081821;28;20094;-69
2022/04/25 03:46:02;;;;;;;24.48;6.45;;;;;;;12.87;62.77;93178.56;5085026;28;20024;-70
2022/04/25 03:48:27;;;;;;;23.15;4.82;;;;;;;12.86;62.69;93187.69;5085796;28;20024;-69
2022/04/25 03:50:53;;;;;;;28.90;4.60;;;;;;;12.85;62.77;93191.50;5085770;28;20052;-69
2022/04/25 03:53:18;;;;;;;27.75;5.15;;;;;;;12.89;62.63;93195.06;5085925;28;20027;-69
2022/04/25 03:58:28;;;;;;;30.05;6.07;;;;;;;12.76;63.27;93193.56;5085682;28;20036;-70
2022/04/25 04:00:54;;;;;;;33.60;5.38;;;;;;;12.73;63.39;93186.22;5085660;28;20203;-69
2022/04/25 04:03:20;;;;;;;16.15;4.68;;;;;;;12.78;63.52;93197.47;5085683;28;20024;-70
2022/04/25 04:05:46;;;;;;;22.60;4.65;;;;;;;12.77;63.39;93203.16;5085514;28;20340;-69
2022/04/25 04:08:12;;;;;;;31.88;4.85;;;;;;;12.69;63.66;93196.81;5085339;28;20027;-69
2022/04/25 04:10:37;;;;;;;23.50;4.72;;;;;;;12.68;63.87;93202.50;5085535;28;20024;-69
2022/04/25 04:13:05;;;;;;;27.65;5.65;;;;;;;12.61;64.07;93193.19;5085397;28;20036;-69
2022/04/25 04:15:31;;;;;;;16.88;5.22;;;;;;;12.62;64.36;93210.03;5085273;28;20031;-69
2022/04/25 04:17:56;;;;;;;25.33;5.50;;;;;;;12.69;64.23;93201.41;5085285;28;20028;-69
2022/04/25 04:20:22;;;;;;;25.58;6.10;;;;;;;12.75;64.09;93206.16;5085280;28;20048;-69
2022/04/25 04:22:47;;;;;;;33.88;4.70;;;;;;;12.87;63.51;93204.56;5085511;28;20028;-69
2022/04/25 04:25:13;;;;;;;20.25;4.53;;;;;;;12.92;63.33;93218.44;5085148;28;20087;-69
2022/04/25 04:27:41;;;;;;;22.27;4.22;;;;;;;13.02;63.32;93217.16;5084992;28;20107;-70
2022/04/25 04:30:16;;;;;;;25.48;5.32;;;;;;;13.01;63.21;93216.38;5085087;28;20051;-70
2022/04/25 04:32:42;;;;;;;23.90;5.32;;;;;;;13.10;63.21;93224.22;5085115;28;20066;-70
2022/04/25 04:35:09;;;;;;;20.80;4.68;;;;;;;13.15;63.36;93217.88;5085095;28;20195;-70
2022/04/25 04:37:36;;;;;;;17.20;5.68;;;;;;;13.15;63.61;93215.19;5084956;28;20044;-69
2022/04/25 04:42:48;;;;;;;37.28;5.53;;;;;;;13.37;63.55;93217.31;5084957;28;20031;-69
2022/04/25 04:45:14;;;;;;;30.02;6.47;;;;;;;13.46;63.50;93217.13;5084850;28;20036;-70
2022/04/25 04:47:40;;;;;;;22.63;4.90;;;;;;;13.52;63.05;93225.69;5084594;28;20040;-70
2022/04/25 04:50:08;;;;;;;18.48;4.45;;;;;;;13.53;63.50;93224.53;5084832;28;20094;-70
2022/04/25 04:52:34;;;;;;;21.40;5.07;;;;;;;13.58;63.88;93218.94;5084669;28;20024;-69
2022/04/25 04:54:59;;;;;;;29.35;6.68;;;;;;;13.56;63.35;93224.63;5084668;28;20390;-70
2022/04/25 04:57:24;;;;;;;31.45;5.13;;;;;;;13.55;63.36;93216.94;5083617;28;20029;-69
2022/04/25 04:59:50;;;;;;;27.85;5.75;;;;;;;13.37;63.21;93224.53;5084572;28;20039;-69
2022/04/25 05:02:17;;;;;;;23.30;6.63;;;;;;;13.48;63.04;93228.25;5084465;28;20274;-69
2022/04/25 05:04:43;;;;;;;31.42;5.95;;;;;;;13.43;62.97;93231.97;5084498;28;20085;-69
2022/04/25 05:07:10;;;;;;;25.52;8.00;;;;;;;13.51;63.16;93240.16;5084371;28;20044;-69
2022/04/25 05:09:35;;;;;;;25.60;6.15;;;;;;;13.52;62.85;93250.53;5084259;28;20198;-69
2022/04/25 05:12:01;;;;;;;50.42;6.22;;;;;;;13.53;62.51;93251.31;5084101;28;20318;-69
2022/04/25 05:14:26;;;;;;;32.20;5.32;;;;;;;13.60;62.24;93254.94;5084308;28;20024;-69
2022/04/25 05:16:52;;;;;;;20.02;5.05;;;;;;;13.71;62.55;93257.88;5084127;28;20086;-69
2022/04/25 05:19:17;;;;;;;22.35;4.60;;;;;;;13.74;62.30;93262.53;5084260;28;20032;-69
2022/04/25 05:21:42;;;;;;;31.98;5.82;;;;;;;13.75;61.30;93256.03;5083940;28;20282;-70
2022/04/25 05:24:09;;;;;;;32.17;6.10;;;;;;;13.78;60.81;93259.91;5083925;28;20104;-70
2022/04/25 05:26:34;;;;;;;18.92;5.45;;;;;;;13.79;60.28;93267.63;5084009;28;20051;-69
2022/04/25 05:29:01;;;;;;;25.75;6.43;;;;;;;13.78;61.02;93270.63;5083860;28;20040;-70
2022/04/25 05:31:26;;;;;;;29.38;5.80;;;;;;;13.75;61.21;93257.94;5083958;28;20021;-69
2022/04/25 05:33:52;;;;;;;15.07;5.20;;;;;;;13.81;60.13;93254.66;5083850;28;20103;-70
2022/04/25 05:36:17;;;;;;;38.35;5.78;;;;;;;13.89;60.84;93262.88;5083752;28;20036;-69
2022/04/25 05:38:43;;;;;;;28.63;5.38;;;;;;;13.89;59.71;93268.22;5083716;28;20294;-70
2022/04/25 05:41:09;;;;;;;29.52;6.22;;;;;;;13.96;59.61;93279.09;5083519;28;20084;-70
2022/04/25 05:43:38;;;;;;;26.63;6.10;;;;;;;14.00;58.90;93267.34;5083633;28;20083;-70
2022/04/25 05:46:03;;;;;;;30.27;5.95;;;;;;;13.99;59.39;93267.69;5083378;28;20037;-70
2022/04/25 05:53:57;;;;;;;24.70;6.35;;;;;;;14.16;59.89;93261.94;5083507;28;20089;-69
2022/04/25 05:56:22;;;;;;;27.10;8.60;;;;;;;14.27;59.38;93277.47;5083478;28;20199;-70
2022/04/25 05:58:48;;;;;;;32.17;6.35;;;;;;;14.33;59.33;93276.88;5083483;28;20043;-69
2022/04/25 06:01:14;;;;;;;27.40;5.35;;;;;;;14.40;58.85;93276.25;5083088;28;20036;-70
2022/04/25 06:03:39;;;;;;;37.90;6.97;;;;;;;14.51;58.40;93279.94;5082983;28;20334;-70
2022/04/25 06:06:05;;;;;;;25.17;5.35;;;;;;;14.52;57.71;93269.97;5083202;28;20020;-70
2022/04/25 06:08:30;;;;;;;25.80;6.38;;;;;;;14.52;58.03;93280.69;5083179;28;20020;-70
2022/04/25 06:10:56;;;;;;;23.80;7.10;;;;;;;14.58;58.57;93279.31;5082924;28;20054;-69
2022/04/25 06:13:21;;;;;;;26.42;5.75;;;;;;;14.65;58.29;93279.47;5083109;28;20017;-69
2022/04/25 06:15:47;;;;;;;48.75;6.45;;;;;;;14.72;57.63;93265.44;5083007;28;20114;-70
2022/04/25 06:18:12;;;;;;;25.85;5.75;;;;;;;14.77;57.32;93251.72;5082715;28;20061;-69
2022/04/25 06:20:37;;;;;;;41.15;6.32;;;;;;;14.85;57.07;93237.31;5082936;28;20024;-70
2022/04/25 06:23:03;;;;;;;29.95;7.03;;;;;;;15.00;57.39;93249.88;5082692;28;20035;-70
2022/04/25 06:25:30;;;;;;;42.45;6.60;;;;;;;15.13;56.95;93241.66;5082800;28;20052;-70
2022/04/25 06:28:00;;;;;;;28.65;7.35;;;;;;;15.20;56.96;93236.41;5082809;28;20041;-70
2022/04/25 06:30:29;;;;;;;26.60;5.07;;;;;;;15.36;55.47;93253.19;5082722;28;20322;-69
2022/04/25 06:32:55;;;;;;;26.90;5.15;;;;;;;15.43;53.35;93250.63;5082789;28;20016;-69
2022/04/25 06:35:20;;;;;;;30.08;5.00;;;;;;;15.58;53.70;93253.56;5082878;28;20330;-70
2022/04/25 06:37:46;;;;;;;26.33;5.63;;;;;;;15.72;53.28;93244.94;5082677;28;20035;-70
2022/04/25 06:40:12;;;;;;;22.13;4.95;;;;;;;15.79;52.64;93250.44;5082730;28;20039;-69
2022/04/25 06:42:38;;;;;;;27.52;4.40;;;;;;;15.87;52.67;93254.03;5082709;28;20042;-70
2022/04/25 06:45:04;;;;;;;27.25;4.82;;;;;;;15.97;52.56;93261.47;5082678;28;20044;-70
2022/04/25 06:47:30;;;;;;;29.63;5.95;;;;;;;16.01;52.52;93263.06;5082475;28;20091;-69
2022/04/25 06:49:56;;;;;;;38.05;6.10;;;;;;;15.94;53.28;93252.22;5082591;28;20192;-70
2022/04/25 06:52:22;;;;;;;28.33;6.22;;;;;;;16.06;53.50;93275.44;5082601;28;20322;-70
2022/04/25 06:54:47;;;;;;;29.45;5.70;;;;;;;16.16;53.51;93269.44;5082468;28;20326;-69
2022/04/25 06:57:13;;;;;;;33.65;4.70;;;;;;;16.20;52.36;93264.09;5082529;28;20016;-68
2022/04/25 06:59:39;;;;;;;34.88;5.20;;;;;;;16.20;52.79;93264.09;5082134;28;20326;-69
2022/04/25 07:02:04;;;;;;;20.85;4.40;;;;;;;16.32;51.47;93255.06;5082157;28;20017;-68
2022/04/25 07:04:29;;;;;;;22.77;4.38;;;;;;;16.38;50.28;93264.34;5082387;28;20016;-69
2022/04/25 07:06:55;;;;;;;49.58;7.25;;;;;;;16.48;50.30;93262.97;5082350;28;20016;-69
2022/04/25 07:09:21;;;;;;;36.22;5.88;;;;;;;16.33;50.36;93259.31;5082392;28;20023;-69
2022/04/25 07:11:47;;;;;;;31.23;5.65;;;;;;;16.44;50.28;93252.16;5082324;28;20188;-69
2022/04/25 07:14:14;;;;;;;24.70;4.82;;;;;;;16.59;50.55;93261.19;5082031;28;20020;-68
2022/04/25 07:16:41;;;;;;;37.55;5.10;;;;;;;16.75;49.35;93255.59;5082301;28;20083;-69
2022/04/25 07:19:07;;;;;;;21.88;5.38;;;;;;;16.86;49.29;93256.53;5082233;28;20020;-69
2022/04/25 07:29:48;;;;;;;58.47;5.60;;;;;;;17.31;48.27;93238.56;5086120;28;20054;-69
2022/04/25 07:32:14;;;;;;;24.23;4.90;;;;;;;17.48;47.26;93252.56;5086091;28;20024;-69
2022/04/25 07:34:41;;;;;;;38.13;5.15;;;;;;;17.63;46.69;93241.53;5085794;28;20261;-69
2022/04/25 07:37:07;;;;;;;35.83;6.07;;;;;;;17.79;47.31;93241.28;5085901;28;20024;-69
2022/04/25 07:39:32;;;;;;;31.77;4.25;;;;;;;17.97;46.84;93248.75;5085729;28;20199;-69
2022/04/25 07:41:58;;;;;;;24.77;4.38;;;;;;;18.10;46.14;93250.00;5085865;28;20024;-69
2022/04/25 07:44:24;;;;;;;32.88;4.20;;;;;;;18.20;44.76;93241.22;5086106;28;20024;-69
2022/04/25 07:46:50;;;;;;;22.88;3.42;;;;;;;18.24;43.50;93241.25;5085645;28;20078;-69
2022/04/25 07:49:16;;;;;;;26.45;4.05;;;;;;;18.33;43.73;93238.97;5085622;28;20060;-69
2022/04/25 07:51:41;;;;;;;28.35;6.57;;;;;;;18.47;42.92;93234.81;5085576;28;20024;-69
2022/04/25 07:54:08;;;;;;;26.80;4.43;;;;;;;18.50;43.40;93240.22;5085460;28;20028;-69
2022/04/25 07:56:35;;;;;;;35.60;4.55;;;;;;;18.62;43.00;93234.50;5085446;28;20021;-69
2022/04/25 07:59:01;;;;;;;21.45;3.90;;;;;;;18.72;41.52;93224.88;5085444;28;20020;-69
2022/04/25 08:01:29;;;;;;;28.48;4.22;;;;;;;18.74;40.66;93229.91;5085285;28;20036;-69
2022/04/25 08:03:55;;;;;;;31.45;4.10;;;;;;;18.88;40.23;93230.00;5085483;28;20029;-69
2022/04/25 08:06:22;;;;;;;23.17;3.75;;;;;;;19.02;38.06;93232.75;5085385;28;20261;-69
2022/04/25 08:08:52;;;;;;;30.48;5.00;;;;;;;19.07;38.26;93226.22;5084837;28;20072;-69
2022/04/25 08:11:18;;;;;;;25.88;4.50;;;;;;;19.15;37.17;93216.19;5085133;28;20036;-69
2022/04/25 08:19:13;;;;;;;21.73;3.75;;;;;;;19.60;35.56;93208.50;5085278;28;20257;-69
2022/04/25 08:21:39;;;;;;;32.83;4.07;;;;;;;19.64;35.09;93212.78;5085104;28;20087;-69
2022/04/25 08:24:05;;;;;;;23.17;3.65;;;;;;;19.75;35.50;93212.81;5084948;28;20047;-69
2022/04/25 08:26:31;;;;;;;35.78;4.88;;;;;;;19.89;34.19;93213.97;5066974;28;20211;-69
2022/04/25 08:28:56;;;;;;;21.60;4.65;;;;;;;19.97;33.41;93215.50;5085103;28;20047;-69
2022/04/25 08:31:22;;;;;;;31.63;3.88;;;;;;;20.06;33.76;93209.69;5083588;28;20028;-69
2022/04/25 08:33:48;;;;;;;23.98;4.07;;;;;;;20.06;33.45;93218.56;5084975;28;20055;-69
2022/04/25 08:36:16;;;;;;;22.98;3.95;;;;;;;19.98;30.33;93208.91;5084722;28;20234;-70
2022/04/25 08:38:43;;;;;;;37.55;5.07;;;;;;;19.89;29.46;93205.84;5084842;28;20024;-69
2022/04/25 08:41:11;;;;;;;28.88;4.63;;;;;;;19.91;29.50;93201.59;5084725;28;20026;-70
2022/04/25 08:43:39;;;;;;;40.92;5.82;;;;;;;20.04;30.03;93196.56;5084698;28;20248;-70
2022/04/25 08:46:07;;;;;;;36.53;7.13;;;;;;;20.18;30.60;93195.75;5084608;28;20266;-69
2022/04/25 08:48:33;;;;;;;29.77;4.70;;;;;;;20.25;30.27;93190.31;5084738;28;20036;-69
2022/04/25 08:51:00;;;;;;;27.98;4.82;;;;;;;20.37;29.80;93189.94;5084605;28;20024;-69
2022/04/25 08:53:27;;;;;;;28.73;4.35;;;;;;;20.54;30.04;93196.44;5084721;28;20020;-69
2022/04/25 08:55:54;;;;;;;33.08;3.75;;;;;;;20.66;28.85;93216.94;5084519;28;20036;-69
2022/04/25 08:58:21;;;;;;;34.70;4.15;;;;;;;20.62;28.63;93192.56;5084206;28;20208;-69
2022/04/25 09:00:47;;;;;;;26.10;3.13;;;;;;;20.70;28.73;93181.69;5084326;28;20319;-70
2022/04/25 09:03:14;;;;;;;31.15;4.20;;;;;;;20.73;28.04;93195.22;5084093;28;20028;-70
2022/04/25 09:05:40;;;;;;;28.55;3.40;;;;;;;20.84;27.57;93184.34;5084350;28;20052;-70
2022/04/25 09:08:07;;;;;;;29.75;3.50;;;;;;;20.94;27.48;93180.03;5084200;28;20315;-70
2022/04/25 09:10:33;;;;;;;38.90;3.72;;;;;;;21.03;26.90;93189.28;5084333;28;20024;-70
2022/04/25 09:13:00;;;;;;;25.00;2.85;;;;;;;20.81;27.35;93191.31;5084075;28;20023;-69
2022/04/25 09:15:26;;;;;;;13.07;3.10;;;;;;;20.63;27.63;93183.28;5084457;28;20074;-70
2022/04/25 09:17:55;;;;;;;38.70;3.92;;;;;;;20.63;27.01;93188.69;5084153;28;20385;-70
2022/04/25 09:20:23;;;;;;;23.60;2.90;;;;;;;20.55;27.56;93187.13;5083966;28;20028;-69
2022/04/25 09:22:49;;;;;;;28.48;3.08;;;;;;;20.51;27.22;93172.84;5083897;28;20055;-69
2022/04/25 09:25:17;;;;;;;25.17;2.90;;;;;;;20.56;28.11;93182.50;5083799;28;20059;-69
2022/04/25 09:27:43;;;;;;;20.55;3.63;;;;;;;20.62;27.79;93164.72;5083628;28;20021;-70
2022/04/25 09:30:13;;;;;;;31.70;3.58;;;;;;;20.70;28.56;93176.28;5083888;28;20016;-70
2022/04/25 09:32:39;;;;;;;21.08;3.25;;;;;;;20.66;27.68;93168.19;5084066;28;20016;-70
2022/04/25 09:35:35;;;;;;;37.35;4.65;;;;;;;20.64;28.01;93157.00;5083707;28;20051;-69
2022/04/25 09:38:03;;;;;;;28.52;2.75;;;;;;;20.71;27.86;93161.59;5083641;28;20054;-69
2022/04/25 09:40:32;;;;;;;22.27;4.30;;;;;;;20.75;27.23;93162.34;5083877;28;20047;-70
2022/04/25 09:43:07;;;;;;;25.92;2.70;;;;;;;20.79;27.34;93169.28;5083201;28;20035;-70
2022/04/25 09:45:33;;;;;;;26.73;3.42;;;;;;;20.88;27.36;93170.78;5083566;28;20196;-70
2022/04/25 09:47:59;;;;;;;36.33;5.53;;;;;;;20.97;27.65;93163.78;5083698;28;20036;-69
2022/04/25 09:50:28;;;;;;;20.33;3.72;;;;;;;21.14;27.67;93134.25;5083597;28;20024;-70
2022/04/25 09:53:02;;;;;;;18.58;4.78;;;;;;;21.35;28.58;93155.81;5083325;28;20024;-70
2022/04/25 09:55:31;;;;;;;15.02;2.50;;;;;;;21.43;25.28;93161.94;5083207;28;20028;-69
2022/04/25 09:57:57;;;;;;;18.40;2.80;;;;;;;21.52;25.86;93164.22;5083573;28;20035;-70
2022/04/25 10:00:33;;;;;;;29.27;4.05;;;;;;;21.60;25.27;93161.06;5083235;28;20039;-70
2022/04/25 10:03:01;;;;;;;14.77;3.13;;;;;;;21.60;24.79;93144.03;5083256;28;20084;-69
2022/04/25 10:05:46;;;;;;;16.73;2.38;;;;;;;21.54;25.15;93157.22;5082925;28;20025;-69
2022/04/25 10:08:14;;;;;;;16.48;2.63;;;;;;;21.56;25.24;93156.84;5083048;28;20017;-69
2022/04/25 10:10:46;;;;;;;20.38;3.40;;;;;;;21.59;25.12;93156.03;5083055;28;20087;-69
2022/04/25 10:13:11;;;;;;;21.05;2.58;;;;;;;21.70;25.27;93162.16;5083074;28;20025;-69
2022/04/25 10:15:41;;;;;;;14.93;3.58;;;;;;;21.79;24.23;93159.72;5082866;28;20094;-69
2022/04/25 10:18:07;;;;;;;28.60;4.38;;;;;;;21.95;25.03;93158.44;5082850;28;20028;-69
2022/04/25 10:20:36;;;;;;;35.75;3.33;;;;;;;22.02;23.86;93163.78;5082929;28;20262;-69
2022/04/25 10:23:09;;;;;;;17.85;2.65;;;;;;;22.04;24.60;93161.44;5082785;28;20028;-69
2022/04/25 10:25:36;;;;;;;19.88;3.20;;;;;;;22.13;24.68;93156.31;5082879;28;20020;-70
2022/04/25 10:28:06;;;;;;;15.95;2.42;;;;;;;22.12;22.34;93154.75;5082641;28;20104;-70
2022/04/25 10:30:34;;;;;;;28.05;4.68;;;;;;;22.08;22.90;93161.41;5082786;28;20016;-70
2022/04/25 10:33:20;;;;;;;22.15;2.35;;;;;;;21.97;22.67;93150.66;5082902;28;20061;-70
2022/04/25 10:35:47;;;;;;;38.05;3.97;;;;;;;21.95;22.73;93144.88;5082789;28;20067;-69
2022/04/25 10:38:49;;;;;;;22.38;3.10;;;;;;;21.94;23.13;93138.69;5082467;28;20066;-70
2022/04/25 10:44:16;;;;;;;21.48;2.17;;;;;;;22.14;21.48;93149.69;5082630;28;20372;-69
2022/04/25 10:47:04;;;;;;;15.45;2.58;;;;;;;22.29;22.53;93155.00;5082539;28;20020;-69
2022/04/25 10:49:46;;;;;;;20.88;2.33;;;;;;;22.34;22.31;93168.91;5082477;28;20370;-69
2022/04/25 10:52:30;;;;;;;;;;;;;;;22.27;20.74;93150.00;5082812;28;20024;-69
2022/04/25 10:55:19;;;;;;;18.25;2.78;;;;;;;22.19;20.82;93146.56;5081683;28;19911;-70
2022/04/25 10:58:03;;;;;;;23.20;2.20;;;;;;;22.29;20.26;93155.00;5082393;28;20087;-69
2022/04/25 11:00:38;;;;;;;18.67;2.47;;;;;;;22.45;20.59;93136.22;5082609;28;20035;-70
2022/04/25 11:03:04;;;;;;;16.17;2.15;;;;;;;22.49;17.78;93158.69;5082189;28;20097;-69
2022/04/25 11:05:29;;;;;;;17.02;2.17;;;;;;;22.62;18.96;93154.25;5082325;28;20032;-70
2022/04/25 11:08:20;;;;;;;14.90;2.28;;;;;;;22.63;18.81;93155.78;5082218;28;20051;-70
2022/04/25 11:11:00;;;;;;;26.88;2.88;;;;;;;22.76;20.60;93160.69;5081662;28;20031;-70
2022/04/25 11:13:30;;;;;;;21.40;2.15;;;;;;;22.95;19.55;93143.72;5081773;28;20092;-70
2022/04/25 11:15:58;;;;;;;15.25;3.00;;;;;;;23.18;19.06;93143.06;5081956;28;20403;-71
2022/04/25 11:18:33;;;;;;;31.77;3.03;;;;;;;23.14;19.84;93145.06;5081902;28;20020;-70
2022/04/25 11:21:09;;;;;;;24.02;2.85;;;;;;;23.08;19.26;93162.22;5082198;28;20029;-70
2022/04/25 11:23:47;;;;;;;13.07;2.88;;;;;;;23.00;19.75;93159.59;5081842;28;20028;-71
2022/04/25 11:26:22;;;;;;;19.73;2.30;;;;;;;23.10;18.58;93163.38;5082087;28;20024;-71
2022/04/25 11:29:01;;;;;;;12.05;2.00;;;;;;;23.25;19.10;93158.50;5081671;28;20052;-70
2022/04/25 11:31:33;;;;;;;16.02;2.70;;;;;;;23.28;18.45;93151.47;5081916;28;20028;-71
2022/04/25 11:34:11;;;;;;;20.60;3.88;;;;;;;23.28;18.63;93160.38;5082239;28;20146;-73
2022/04/25 11:36:38;;;;;;;16.33;1.95;;;;;;;23.32;17.94;93161.09;5082068;28;20031;-71
2022/04/25 11:41:48;;;;;;;12.73;1.55;;;;;;;23.30;17.42;93162.69;5081973;28;20036;-72
2022/04/25 11:44:14;;;;;;;12.02;1.83;;;;;;;23.26;17.73;93181.00;5081669;28;20037;-71
2022/04/25 11:46:41;;;;;;;12.93;1.90;;;;;;;22.88;17.63;93157.44;5081957;28;20106;-71
2022/04/25 11:49:07;;;;;;;24.50;2.53;;;;;;;22.86;17.97;93161.72;5082017;28;20021;-71
2022/04/25 11:51:40;;;;;;;12.20;1.80;;;;;;;22.59;18.34;93155.06;5081874;28;20253;-71
2022/04/25 11:54:08;;;;;;;15.95;2.05;;;;;;;22.82;18.18;93153.63;5080239;28;20032;-70
2022/04/25 11:56:42;;;;;;;18.38;2.05;;;;;;;22.98;16.99;93153.03;5081327;28;20024;-71
2022/04/25 11:59:12;;;;;;;18.10;2.70;;;;;;;23.22;17.14;93175.63;5081873;28;20025;-71
2022/04/25 12:01:47;;;;;;;13.10;1.67;;;;;;;23.28;16.69;93154.94;5081516;28;20024;-71